Historyczne dane pomiarowe

Dodano dane terminowe – wersja testowa.

Dane z okresu 1951-2019

Wersja bazy: 1.34 [2019-03-16, lista zmian], aktualizacja planowana na 2019-04-15

Dane meteo z obszaru Polski uzyskane na podstawie danych udostępnionych przez Instytut Meteorologii i Gospodarki Wodnej – Państwowy Instytut Badawczy.

 

Wybierz Datę:    

       

TemperaturaWilgotnośćWiatrCiśnienieOpadyŚniegCzas trwania zjawisk
 Stacja t tx tn tng RH VA  wxwx mslp ppp RRR   cm mm wxwxwxwxwxwxwx
1986-12-13 -4.4 -2.6 -6.1 -8.3 86.0- 8.0 0.0---- 0.0------------
1986-12-14 -3.6 -1.8 -6.1 -7.8 79.8- 7.3 1.0---- 0.0------------
1986-12-15 -0.4 0.7 -5.1 -5.6 90.8- 8.0 0.3---- 0.0------------
1986-12-16 -0.7 0.4 -1.2 -2.0 91.8- 8.0 2.0---- 0.6------------
1986-12-17 1.0 2.7 -1.0 -3.5 84.3- 6.0 2.0---- 0.9------------
1986-12-18 0.8 2.2 -1.0 -1.0 86.8- 8.0 2.3---- 1.0------------
1986-12-19 1.4 2.4 -1.2 -1.0 83.5- 8.0 5.7---- 0.7-- 2---------
1986-12-20 0.4 2.8 -0.8 -1.0 88.8- 8.0 4.0---- 0.9-- 3---------
1986-12-21 -3.9 -0.4 -5.8-10.4 74.8- 2.7 2.0---- 1.3-- 9---------
1986-12-22 -6.3 -4.1 -7.8-13.7 80.0- 7.3 2.3---- 1.1-- 8---------
1986-12-23 -4.9 -4.1 -5.9 -8.2 87.8- 8.0 1.7---- 0.8-- 11---------
1986-12-24 -5.4 -4.1 -7.7 -9.2 90.8- 8.0 1.0---- 0.9-- 12---------
1986-12-25 -9.5 -6.6-10.9-11.4 89.8- 8.0 0.7---- 0.4-- 13---------
1986-12-26-12.4 -9.7-14.5-17.6 84.5- 5.7 1.3---- 0.6-- 14---------
1986-12-27-11.4 -5.6-16.6-21.2 82.8- 8.0 1.3---- 1.4-- 16---------
1986-12-28 -2.4 -0.3 -6.5 -5.5 93.8- 8.0 1.0---- 0.3-- 21---------
1986-12-29 -1.4 3.9 -7.1 -6.5 88.3- 7.7 1.7---- 0.0-- 20---------
1986-12-30 0.4 3.8 -3.0 -5.5 66.5- 2.7 5.7---- 0.0-- 20---------
1986-12-31 -4.6 -1.9 -6.9-11.1 87.0- 8.0 0.3---- 0.7-- 18---------
1987-01-01 -1.6 1.7 -4.9 -5.5 92.0- 8.0 1.3---- 0.0-- 18---------
1987-01-02-10.5 -4.4-11.8-12.3 78.3- 8.0 3.0---- 0.0-- 18---------
1987-01-03-14.1 -8.5-20.7-25.1 74.3- 5.3 0.7---- 0.0-- 17---------
1987-01-04 -8.2 -4.0-12.5-20.6 78.3- 7.0 2.3---- 0.1-- 16---------
1987-01-05 -7.9 -2.8-12.8-19.6 89.8- 8.0 5.0---- 6.4-- 18---------
1987-01-06 -1.4 -0.2 -3.6 -7.2 93.0- 7.7 0.3---- 3.8-- 34---------
1987-01-07-19.3 -1.6-24.5-27.1 75.0- 3.3 2.7---- 0.6-- 38---------
1987-01-08-26.5-20.5-32.1-38.2 75.0- 4.0 0.3---- 0.4-- 40---------
1987-01-09-17.6-10.9-23.6-26.5 81.5- 8.0 3.0---- 1.8-- 42---------
1987-01-10-23.9-15.5-28.8-32.6 76.5- 3.3 0.3---- 0.3-- 43---------
1987-01-11-25.0-19.9-30.7-34.3 73.5- 7.7 2.0---- 0.0-- 43---------
345.9 ms

 

Źródłem pochodzenia danych jest Instytut Meteorologii i Gospodarki Wodnej – Państwowy Instytut Badawczy. Dane Instytutu Meteorologii i Gospodarki Wodnej – Państwowego Instytutu Badawczego zostały przetworzone.

Dane źródłowe można odnaleźć na stronie https://dane.imgw.pl